Nokomis, Florida
Current Conditions -  °F | °C
As of 1:15 PM on Saturday 22 Nov 2014 (Local Time) from KVNC Reporting Station
Scattered Clouds Scattered Clouds  
Wind Chill: 79°   Ceiling: Unl
Heat Index: 81°   Visibility: 10mi
Dew Point: 66°   Wind: 16mph
Humidity: 65%   Direction: 100°E
Pressure: 30.12"   Gusts: 23mph
Location:  27.12°N, 82.44°W
Report Text: KVNC 221815Z AUTO 10014G20KT 10SM SCT034 SCT039 26/19 A3012 RMK AO2 TSNO
Loading
Personal Weather Stations






























Interactive Weather Map New forecast layout! Learn more

10-Day Weather Forecast

Advertisements
Track Severe Weather on mobile